createdAt,value
2022-09-03T00:01:19.543Z,19.28
2022-09-03T00:03:55.733Z,19.19
2022-09-03T00:06:34.648Z,19.18
2022-09-03T00:09:13.086Z,19.13
2022-09-03T00:11:54.329Z,19.04
2022-09-03T00:14:28.405Z,19.03
2022-09-03T00:17:04.389Z,18.94
2022-09-03T00:19:40.153Z,18.92
2022-09-03T00:22:19.567Z,18.92
2022-09-03T00:24:52.354Z,18.81
2022-09-03T00:27:26.612Z,18.83
2022-09-03T00:30:01.034Z,18.86
2022-09-03T00:32:39.889Z,18.87
2022-09-03T00:35:17.008Z,18.88
2022-09-03T00:37:49.774Z,18.85
2022-09-03T00:40:34.606Z,18.75
2022-09-03T00:43:14.459Z,18.70
2022-09-03T00:45:49.480Z,18.69
2022-09-03T00:48:28.360Z,18.69
2022-09-03T00:51:12.773Z,18.71
2022-09-03T00:53:54.066Z,18.66
2022-09-03T00:56:31.319Z,18.64
2022-09-03T00:59:11.346Z,18.63
2022-09-03T01:01:51.246Z,18.58
2022-09-03T01:04:38.044Z,18.51
2022-09-03T01:07:15.842Z,18.48
2022-09-03T01:09:56.547Z,18.45
2022-09-03T01:12:38.006Z,18.38
2022-09-03T01:15:15.847Z,18.37
2022-09-03T01:17:56.907Z,18.31
2022-09-03T01:20:38.475Z,18.20
2022-09-03T01:23:31.070Z,18.16
2022-09-03T01:26:18.711Z,18.11
2022-09-03T01:29:03.119Z,18.05
2022-09-03T01:31:46.640Z,18.01
2022-09-03T01:34:25.734Z,17.99
2022-09-03T01:37:09.222Z,17.95
2022-09-03T01:39:56.049Z,17.94
2022-09-03T01:42:35.041Z,17.92
2022-09-03T01:45:32.691Z,17.90
2022-09-03T01:48:18.163Z,17.89
2022-09-03T01:50:57.824Z,17.85
2022-09-03T01:53:44.232Z,17.85
2022-09-03T01:56:29.371Z,17.86
2022-09-03T01:59:07.106Z,17.85
2022-09-03T02:01:45.327Z,17.85
2022-09-03T02:04:23.266Z,17.82
2022-09-03T02:06:54.243Z,17.84
2022-09-03T02:09:24.417Z,17.79
2022-09-03T02:12:04.884Z,17.79
2022-09-03T02:14:35.476Z,17.70
2022-09-03T02:17:09.794Z,17.69
2022-09-03T02:19:44.154Z,17.58
2022-09-03T02:22:15.844Z,17.59
2022-09-03T02:24:46.132Z,17.52
2022-09-03T02:27:16.332Z,17.45
2022-09-03T02:29:47.019Z,17.42
2022-09-03T02:32:19.860Z,17.43
2022-09-03T02:34:49.737Z,17.38
2022-09-03T02:37:22.299Z,17.39
2022-09-03T02:39:52.905Z,17.39
2022-09-03T02:42:23.317Z,17.44
2022-09-03T02:44:58.140Z,17.39
2022-09-03T02:47:35.684Z,17.36
2022-09-03T02:50:05.645Z,17.31
2022-09-03T02:52:35.857Z,17.27
2022-09-03T02:55:05.803Z,17.26
2022-09-03T02:57:35.941Z,17.24
2022-09-03T03:00:08.125Z,17.18
2022-09-03T03:02:41.983Z,17.16
2022-09-03T03:05:17.645Z,17.04
2022-09-03T03:07:47.857Z,16.98
2022-09-03T03:10:17.740Z,16.96
2022-09-03T03:12:47.720Z,16.95
2022-09-03T03:15:18.021Z,16.94
2022-09-03T03:17:50.526Z,16.77
2022-09-03T03:20:20.672Z,16.72
2022-09-03T03:22:50.912Z,16.73
2022-09-03T03:25:21.027Z,16.67
2022-09-03T03:27:50.889Z,16.62
2022-09-03T03:30:21.463Z,16.64
2022-09-03T03:32:56.369Z,16.67
2022-09-03T03:35:26.719Z,16.68
2022-09-03T03:37:57.219Z,16.62
2022-09-03T03:40:27.587Z,16.62
2022-09-03T03:43:00.728Z,16.72
2022-09-03T03:45:30.822Z,16.51
2022-09-03T03:48:03.767Z,16.41
2022-09-03T03:50:33.910Z,16.27
2022-09-03T03:53:04.446Z,16.25
2022-09-03T03:55:35.145Z,16.18
2022-09-03T03:58:05.770Z,16.19
2022-09-03T04:00:37.870Z,16.04
2022-09-03T04:03:10.840Z,16.03
2022-09-03T04:05:46.233Z,16.07
2022-09-03T04:08:19.494Z,16.06
2022-09-03T04:10:49.685Z,15.92
2022-09-03T04:13:20.430Z,15.98
2022-09-03T04:15:50.464Z,15.98
2022-09-03T04:18:23.739Z,16.03
2022-09-03T04:20:55.418Z,16.08
2022-09-03T04:23:25.569Z,16.15
2022-09-03T04:25:55.917Z,16.20
2022-09-03T04:28:26.502Z,16.22
2022-09-03T04:30:56.986Z,16.25
2022-09-03T04:33:30.829Z,16.31
2022-09-03T04:36:08.250Z,16.34
2022-09-03T04:38:40.496Z,16.38
2022-09-03T04:41:12.674Z,16.37
2022-09-03T04:43:43.742Z,16.37
2022-09-03T04:46:18.435Z,16.38
2022-09-03T04:48:54.428Z,16.35
2022-09-03T04:51:30.056Z,16.37
2022-09-03T04:54:02.252Z,16.26
2022-09-03T04:56:35.350Z,16.29
2022-09-03T04:59:07.367Z,16.30
2022-09-03T05:01:39.160Z,16.23
2022-09-03T05:04:12.148Z,16.32
2022-09-03T05:06:43.449Z,16.29
2022-09-03T05:09:13.938Z,16.31
2022-09-03T05:11:44.311Z,16.35
2022-09-03T05:14:14.448Z,16.27
2022-09-03T05:16:44.325Z,16.25
2022-09-03T05:19:26.006Z,16.26
2022-09-03T05:21:55.881Z,16.33
2022-09-03T05:24:26.052Z,16.35
2022-09-03T05:26:55.925Z,16.33
2022-09-03T05:29:26.111Z,16.30
2022-09-03T05:31:56.345Z,16.34
2022-09-03T05:34:28.814Z,16.37
2022-09-03T05:36:58.881Z,16.37
2022-09-03T05:39:28.837Z,16.36
2022-09-03T05:41:58.631Z,16.33
2022-09-03T05:44:28.847Z,16.24
2022-09-03T05:46:59.099Z,16.25
2022-09-03T05:49:32.083Z,16.30
2022-09-03T05:52:03.159Z,16.42
2022-09-03T05:54:33.331Z,16.45
2022-09-03T05:57:03.249Z,16.41
2022-09-03T05:59:33.089Z,16.47
2022-09-03T06:02:03.405Z,16.39
2022-09-03T06:04:35.899Z,16.40
2022-09-03T06:07:06.186Z,16.38
2022-09-03T06:09:36.036Z,16.35
2022-09-03T06:12:06.169Z,16.32
2022-09-03T06:14:36.318Z,16.38
2022-09-03T06:17:06.223Z,16.39
2022-09-03T06:19:38.687Z,16.41
2022-09-03T06:22:09.117Z,16.46
2022-09-03T06:24:39.325Z,16.47
2022-09-03T06:27:09.461Z,16.48
2022-09-03T06:29:39.949Z,16.54
2022-09-03T06:32:10.116Z,16.54
2022-09-03T06:34:45.671Z,16.57
2022-09-03T06:37:16.074Z,16.60
2022-09-03T06:39:46.586Z,16.65
2022-09-03T06:42:17.524Z,16.68
2022-09-03T06:44:49.003Z,16.68
2022-09-03T06:47:19.685Z,16.70
2022-09-03T06:49:52.444Z,16.70
2022-09-03T06:52:23.051Z,16.73
2022-09-03T06:54:53.237Z,16.79
2022-09-03T06:57:23.758Z,16.80
2022-09-03T06:59:54.715Z,16.89
2022-09-03T07:02:25.077Z,16.93
2022-09-03T07:04:58.835Z,16.89
2022-09-03T07:07:29.006Z,16.92
2022-09-03T07:09:59.665Z,16.96
2022-09-03T07:12:29.879Z,17.05
2022-09-03T07:14:59.934Z,16.99
2022-09-03T07:17:30.532Z,17.04
2022-09-03T07:20:03.083Z,17.12
2022-09-03T07:22:33.657Z,17.18
2022-09-03T07:25:03.682Z,17.19
2022-09-03T07:27:33.714Z,17.30
2022-09-03T07:30:04.019Z,17.38
2022-09-03T07:32:33.797Z,17.49
2022-09-03T07:35:08.279Z,17.55
2022-09-03T07:37:38.763Z,17.64
2022-09-03T07:40:10.600Z,17.68
2022-09-03T07:42:41.579Z,17.75
2022-09-03T07:45:13.519Z,17.84
2022-09-03T07:47:50.269Z,17.87
2022-09-03T07:50:23.753Z,17.89
2022-09-03T07:53:00.019Z,17.97
2022-09-03T07:55:33.593Z,18.06
2022-09-03T07:58:06.023Z,18.16
2022-09-03T08:00:38.234Z,18.21
2022-09-03T08:03:09.215Z,18.28
2022-09-03T08:05:42.033Z,18.33
2022-09-03T08:08:15.542Z,18.39
2022-09-03T08:10:46.761Z,18.48
2022-09-03T08:13:17.042Z,18.62
2022-09-03T08:15:59.789Z,18.69
2022-09-03T08:18:37.949Z,18.82
2022-09-03T08:21:16.966Z,18.97
2022-09-03T08:23:48.937Z,19.11
2022-09-03T08:26:20.715Z,19.14
2022-09-03T08:28:51.211Z,19.19
2022-09-03T08:31:23.628Z,19.27
2022-09-03T08:33:54.845Z,19.37
2022-09-03T08:36:30.087Z,19.40
2022-09-03T08:39:04.284Z,19.53
2022-09-03T08:41:42.553Z,19.58
2022-09-03T08:44:22.615Z,19.60
2022-09-03T08:46:57.811Z,19.69
2022-09-03T08:49:32.302Z,19.78
2022-09-03T08:52:09.231Z,19.90
2022-09-03T08:54:40.428Z,19.90
2022-09-03T08:57:12.285Z,20.02
2022-09-03T08:59:42.462Z,20.14
2022-09-03T09:02:25.531Z,20.29
2022-09-03T09:05:03.022Z,20.42
2022-09-03T09:07:46.613Z,20.58
2022-09-03T09:10:24.493Z,20.73
2022-09-03T09:13:07.980Z,20.89
2022-09-03T09:15:51.619Z,20.94
2022-09-03T09:18:29.045Z,21.10
2022-09-03T09:21:07.118Z,21.21
2022-09-03T09:23:50.611Z,21.43
2022-09-03T09:26:31.576Z,21.60
2022-09-03T09:29:14.796Z,21.77
2022-09-03T09:31:57.815Z,21.98
2022-09-03T09:35:36.466Z,22.21
2022-09-03T09:38:24.337Z,22.37
2022-09-03T09:45:01.092Z,22.83
2022-09-03T09:47:37.721Z,22.77
2022-09-03T09:50:25.894Z,22.96
2022-09-03T09:53:21.840Z,23.25
2022-09-03T09:56:49.315Z,23.37
2022-09-03T09:59:45.910Z,23.50
2022-09-03T10:02:27.321Z,23.69
2022-09-03T10:05:03.021Z,23.97
2022-09-03T10:07:34.480Z,24.23
2022-09-03T10:10:08.085Z,24.28
2022-09-03T10:12:45.035Z,24.34
2022-09-03T10:15:36.914Z,24.50
2022-09-03T10:18:26.477Z,24.53
2022-09-03T10:21:05.187Z,24.52
2022-09-03T10:23:53.774Z,24.56
2022-09-03T10:26:29.131Z,24.60
2022-09-03T10:29:05.798Z,24.75
2022-09-03T10:31:55.231Z,24.63
2022-09-03T10:34:37.004Z,24.59
2022-09-03T10:37:19.789Z,24.44
2022-09-03T10:39:59.711Z,24.50
2022-09-03T10:42:41.139Z,24.49
2022-09-03T10:45:20.752Z,24.48
2022-09-03T10:48:11.779Z,24.51
2022-09-03T10:50:51.512Z,24.52
2022-09-03T10:53:39.423Z,24.29
2022-09-03T10:56:17.324Z,24.34
2022-09-03T10:59:02.208Z,24.25
2022-09-03T11:01:40.761Z,24.28
2022-09-03T11:04:26.676Z,24.47
2022-09-03T11:07:03.067Z,24.50
2022-09-03T11:09:39.984Z,24.48
2022-09-03T11:12:15.073Z,24.27
2022-09-03T11:14:48.598Z,24.46
2022-09-03T11:17:26.503Z,24.90
2022-09-03T11:20:05.708Z,25.08
2022-09-03T11:22:38.028Z,25.12
2022-09-03T11:25:11.192Z,25.44
2022-09-03T11:27:58.928Z,25.83
2022-09-03T11:30:41.528Z,25.94
2022-09-03T11:33:15.018Z,26.13
2022-09-03T11:35:48.261Z,26.48
2022-09-03T11:38:27.458Z,26.59
2022-09-03T11:41:04.423Z,26.46
2022-09-03T11:43:35.800Z,26.11
2022-09-03T11:46:12.042Z,25.98
2022-09-03T11:48:45.808Z,25.80
2022-09-03T11:51:35.774Z,25.87
2022-09-03T11:54:09.635Z,25.79
2022-09-03T11:56:40.274Z,25.69
2022-09-03T11:59:22.902Z,25.81
2022-09-03T12:01:55.974Z,26.01
2022-09-03T12:04:34.629Z,26.26
2022-09-03T12:07:31.580Z,26.21
2022-09-03T12:10:40.005Z,26.20
2022-09-03T12:13:44.352Z,25.95
2022-09-03T12:16:35.008Z,25.91
2022-09-03T12:19:12.858Z,26.04
2022-09-03T12:21:44.309Z,26.07
2022-09-03T12:24:17.357Z,25.86
2022-09-03T12:26:47.488Z,26.05
2022-09-03T12:29:27.930Z,26.36
2022-09-03T12:31:59.057Z,26.61
2022-09-03T12:34:29.197Z,26.59
2022-09-03T12:36:58.897Z,26.53
2022-09-03T12:42:29.722Z,26.20
2022-09-03T12:45:09.351Z,26.45
2022-09-03T12:47:42.362Z,26.83
2022-09-03T12:50:16.631Z,27.03
2022-09-03T12:52:51.662Z,27.31
2022-09-03T12:55:36.347Z,27.21
2022-09-03T12:58:13.866Z,27.08
2022-09-03T13:00:49.842Z,26.99
2022-09-03T13:03:26.108Z,26.96
2022-09-03T13:06:00.089Z,26.99
2022-09-03T13:08:33.866Z,26.84
2022-09-03T13:11:07.877Z,26.85
2022-09-03T13:13:40.847Z,26.76
2022-09-03T13:16:31.345Z,26.74
2022-09-03T13:19:09.747Z,26.62
2022-09-03T13:21:48.923Z,26.50
2022-09-03T13:24:42.886Z,26.32
2022-09-03T13:27:24.819Z,26.29
2022-09-03T13:30:11.069Z,26.31
2022-09-03T13:32:51.190Z,26.30
2022-09-03T13:35:30.950Z,26.24
2022-09-03T13:38:13.178Z,26.19
2022-09-03T13:40:49.918Z,26.24
2022-09-03T13:43:33.629Z,26.25
2022-09-03T13:46:09.147Z,26.24
2022-09-03T13:48:55.255Z,26.12
2022-09-03T13:51:30.655Z,26.07
2022-09-03T13:54:16.967Z,25.98
2022-09-03T13:56:59.739Z,26.26
2022-09-03T13:59:39.237Z,26.68
2022-09-03T14:02:18.918Z,26.60
2022-09-03T14:05:01.447Z,26.62
2022-09-03T14:07:48.052Z,26.54
2022-09-03T14:10:26.371Z,26.47
2022-09-03T14:13:09.639Z,26.44
2022-09-03T14:15:46.719Z,26.37
2022-09-03T14:18:26.718Z,26.37
2022-09-03T14:21:00.808Z,26.36
2022-09-03T14:23:38.754Z,26.16
2022-09-03T14:26:10.252Z,26.12
2022-09-03T14:28:44.544Z,26.18
2022-09-03T14:31:25.703Z,26.66
2022-09-03T14:34:04.647Z,27.14
2022-09-03T14:36:41.627Z,27.52
2022-09-03T14:39:28.307Z,28.13
2022-09-03T14:42:42.995Z,28.59
2022-09-03T14:45:35.343Z,28.63
2022-09-03T14:48:23.632Z,28.95
2022-09-03T14:51:08.559Z,29.42
2022-09-03T14:53:58.578Z,29.94
2022-09-03T14:56:40.756Z,30.67
2022-09-03T14:59:33.159Z,31.29
2022-09-03T15:02:41.370Z,32.29
2022-09-03T15:05:21.472Z,32.68
2022-09-03T15:07:55.923Z,33.10
2022-09-03T15:10:36.472Z,33.43
2022-09-03T15:13:14.582Z,33.18
2022-09-03T15:16:02.280Z,32.77
2022-09-03T15:18:45.925Z,32.48
2022-09-03T15:21:31.274Z,32.34
2022-09-03T15:24:09.999Z,32.35
2022-09-03T15:26:54.928Z,32.30
2022-09-03T15:29:40.791Z,31.68
2022-09-03T15:32:25.546Z,32.42
2022-09-03T15:35:08.767Z,32.85
2022-09-03T15:37:49.794Z,32.76
2022-09-03T15:40:29.090Z,32.20
2022-09-03T15:43:07.967Z,31.46
2022-09-03T15:45:42.557Z,30.83
2022-09-03T15:48:23.577Z,30.50
2022-09-03T15:50:58.718Z,30.06
2022-09-03T15:53:39.226Z,29.87
2022-09-03T15:56:21.278Z,29.88
2022-09-03T15:59:02.652Z,29.79
2022-09-03T16:01:39.667Z,29.21
2022-09-03T16:04:25.016Z,28.95
2022-09-03T16:07:02.761Z,28.60
2022-09-03T16:10:22.635Z,28.34
2022-09-03T16:12:55.353Z,27.73
2022-09-03T16:15:28.642Z,27.58
2022-09-03T16:18:06.693Z,27.82
2022-09-03T16:20:41.747Z,28.01
2022-09-03T16:23:19.404Z,28.21
2022-09-03T16:25:59.228Z,28.44
2022-09-03T16:28:34.035Z,28.50
2022-09-03T16:31:16.591Z,28.64
2022-09-03T16:33:58.427Z,28.79
2022-09-03T16:36:40.651Z,28.84
2022-09-03T16:39:24.395Z,28.88
2022-09-03T16:42:23.477Z,28.87
2022-09-03T16:45:06.912Z,28.68
2022-09-03T16:47:53.342Z,28.64
2022-09-03T16:50:41.688Z,28.49
2022-09-03T16:53:28.843Z,28.31
2022-09-03T16:56:11.443Z,28.25
2022-09-03T16:59:03.376Z,28.26
2022-09-03T17:02:37.094Z,28.21
2022-09-03T17:05:13.219Z,28.07
2022-09-03T17:07:59.200Z,27.96
2022-09-03T17:10:38.485Z,27.87
2022-09-03T17:13:33.623Z,27.92
2022-09-03T17:16:23.666Z,27.74
2022-09-03T17:19:00.195Z,27.57
2022-09-03T17:21:41.944Z,27.45
2022-09-03T17:24:33.614Z,27.39
2022-09-03T17:27:20.981Z,27.35
2022-09-03T17:30:06.000Z,27.22
2022-09-03T17:33:01.737Z,27.13
2022-09-03T17:35:40.467Z,26.92
2022-09-03T17:38:25.657Z,26.83
2022-09-03T17:41:04.238Z,26.71
2022-09-03T17:43:47.176Z,26.61
2022-09-03T17:46:28.218Z,26.59
2022-09-03T17:49:02.920Z,26.50
2022-09-03T17:51:39.365Z,26.36
2022-09-03T17:54:15.667Z,26.28
2022-09-03T17:56:52.247Z,26.14
2022-09-03T17:59:34.883Z,25.96
2022-09-03T18:02:10.702Z,25.90
2022-09-03T18:04:49.294Z,25.84
2022-09-03T18:07:27.786Z,25.75
2022-09-03T18:10:10.143Z,25.74
2022-09-03T18:12:59.865Z,25.72
2022-09-03T18:15:40.318Z,25.78
2022-09-03T18:18:18.974Z,25.76
2022-09-03T18:21:23.357Z,25.72
2022-09-03T18:24:14.849Z,25.65
2022-09-03T18:27:02.793Z,25.58
2022-09-03T18:29:54.233Z,25.56
2022-09-03T18:32:36.990Z,25.56
2022-09-03T18:35:20.182Z,25.49
2022-09-03T18:38:05.214Z,25.42
2022-09-03T18:40:54.807Z,25.37
2022-09-03T18:43:48.396Z,25.28
2022-09-03T18:47:54.458Z,25.23
2022-09-03T18:49:48.744Z,25.09
2022-09-03T18:52:36.569Z,25.00
2022-09-03T18:55:31.128Z,24.95
2022-09-03T18:58:28.427Z,24.95
2022-09-03T19:01:20.693Z,24.93
2022-09-03T19:04:16.851Z,24.85
2022-09-03T19:07:11.967Z,24.76
2022-09-03T19:10:07.551Z,24.70
2022-09-03T19:13:06.943Z,24.64
2022-09-03T19:15:56.529Z,24.58
2022-09-03T19:19:13.893Z,24.48
2022-09-03T19:22:03.695Z,24.44
2022-09-03T19:24:46.649Z,24.41
2022-09-03T19:27:55.291Z,24.36
2022-09-03T19:30:53.049Z,24.29
2022-09-03T19:33:45.474Z,24.22
2022-09-03T19:36:35.361Z,24.11
2022-09-03T19:39:32.034Z,24.04
2022-09-03T19:42:21.431Z,24.01
2022-09-03T19:45:18.295Z,23.98
2022-09-03T19:48:20.775Z,23.99
2022-09-03T19:51:16.335Z,23.95
2022-09-03T19:53:59.941Z,23.80
2022-09-03T19:56:47.097Z,23.77
2022-09-03T19:59:35.323Z,23.74
2022-09-03T20:02:18.857Z,23.68
2022-09-03T20:05:11.994Z,23.64
2022-09-03T20:07:54.786Z,23.63
2022-09-03T20:10:23.579Z,23.59
2022-09-03T20:13:01.970Z,23.47
2022-09-03T20:15:40.750Z,23.40
2022-09-03T20:18:18.175Z,23.36
2022-09-03T20:20:58.926Z,23.25
2022-09-03T20:23:36.274Z,23.30
2022-09-03T20:26:26.654Z,23.28
2022-09-03T20:29:12.122Z,23.22
2022-09-03T20:31:51.165Z,23.16
2022-09-03T20:34:42.771Z,23.10
2022-09-03T20:37:27.940Z,23.07
2022-09-03T20:40:10.140Z,22.95
2022-09-03T20:42:55.865Z,22.90
2022-09-03T20:45:33.934Z,22.95
2022-09-03T20:48:17.092Z,22.96
2022-09-03T20:50:57.312Z,22.94
2022-09-03T20:53:52.860Z,22.80
2022-09-03T20:56:29.753Z,22.71
2022-09-03T20:59:11.863Z,22.68
2022-09-03T21:01:54.349Z,22.67
2022-09-03T21:04:39.953Z,22.63
2022-09-03T21:07:21.921Z,22.65
2022-09-03T21:10:04.608Z,22.70
2022-09-03T21:12:47.314Z,22.66
2022-09-03T21:15:24.390Z,22.69
2022-09-03T21:18:06.313Z,22.71
2022-09-03T21:20:45.601Z,22.67
2022-09-03T21:23:24.905Z,22.63
2022-09-03T21:26:05.567Z,22.72
2022-09-03T21:28:41.254Z,22.66
2022-09-03T21:31:19.232Z,22.54
2022-09-03T21:33:51.676Z,22.55
2022-09-03T21:36:30.220Z,22.48
2022-09-03T21:39:08.466Z,22.49
2022-09-03T21:41:47.573Z,22.35
2022-09-03T21:44:24.495Z,22.25
2022-09-03T21:46:57.693Z,22.23
2022-09-03T21:49:35.066Z,22.21
2022-09-03T21:52:10.446Z,22.06
2022-09-03T21:54:40.924Z,22.06
2022-09-03T21:57:22.669Z,21.99
2022-09-03T22:00:09.851Z,21.96
2022-09-03T22:02:40.467Z,21.94
2022-09-03T22:05:11.577Z,21.87
2022-09-03T22:07:56.794Z,21.85
2022-09-03T22:10:32.723Z,21.89
2022-09-03T22:13:19.259Z,21.72
2022-09-03T22:15:51.975Z,21.66
2022-09-03T22:18:28.695Z,21.70
2022-09-03T22:21:13.150Z,21.67
2022-09-03T22:23:57.889Z,21.66
2022-09-03T22:26:37.573Z,21.60
2022-09-03T22:29:20.365Z,21.51
2022-09-03T22:32:02.043Z,21.39
2022-09-03T22:34:48.269Z,21.38
2022-09-03T22:37:27.585Z,21.33
2022-09-03T22:40:05.519Z,21.16
2022-09-03T22:42:53.458Z,21.17
2022-09-03T22:45:44.157Z,21.10
2022-09-03T22:48:26.169Z,21.12
2022-09-03T22:51:00.329Z,21.09
2022-09-03T22:53:47.626Z,21.17
2022-09-03T22:56:22.187Z,21.08
2022-09-03T22:58:58.902Z,21.07
2022-09-03T23:01:37.840Z,20.96
2022-09-03T23:04:17.251Z,20.85
2022-09-03T23:06:54.797Z,20.88
2022-09-03T23:09:28.962Z,20.82
2022-09-03T23:12:03.622Z,20.81
2022-09-03T23:14:50.526Z,20.85
2022-09-03T23:22:41.036Z,20.77
2022-09-03T23:25:19.022Z,20.74
2022-09-03T23:27:59.539Z,20.75
2022-09-03T23:30:31.800Z,20.82
2022-09-03T23:33:05.974Z,20.53
2022-09-03T23:35:44.547Z,20.40
2022-09-03T23:38:24.801Z,20.22
2022-09-03T23:41:00.723Z,20.20
2022-09-03T23:44:04.412Z,20.07
2022-09-03T23:46:41.728Z,20.02
2022-09-03T23:49:31.084Z,19.94
2022-09-03T23:52:22.628Z,19.96
2022-09-03T23:55:04.169Z,20.04
2022-09-03T23:57:41.622Z,19.98
